createdAt,value
2019-05-09T00:00:35.140Z,990.65
2019-05-09T00:01:10.466Z,990.61
2019-05-09T00:01:45.665Z,990.63
2019-05-09T00:02:21.080Z,990.67
2019-05-09T00:02:56.671Z,990.65
2019-05-09T00:03:33.532Z,990.61
2019-05-09T00:04:07.088Z,990.65
2019-05-09T00:04:43.898Z,990.61
2019-05-09T00:05:17.611Z,990.65
2019-05-09T00:05:54.166Z,990.61
2019-05-09T00:06:27.922Z,990.63
2019-05-09T00:07:03.648Z,990.60
2019-05-09T00:07:38.733Z,990.61
2019-05-09T00:08:14.077Z,990.63
2019-05-09T00:08:48.936Z,990.64
2019-05-09T00:09:24.363Z,990.66
2019-05-09T00:09:59.998Z,990.64
2019-05-09T00:10:39.510Z,990.68
2019-05-09T00:11:10.698Z,990.62
2019-05-09T00:11:46.107Z,990.67
2019-05-09T00:12:23.257Z,990.68
2019-05-09T00:12:57.029Z,990.68
2019-05-09T00:13:34.021Z,990.66
2019-05-09T00:14:07.737Z,990.69
2019-05-09T00:14:43.426Z,990.69
2019-05-09T00:15:18.589Z,990.77
2019-05-09T00:15:54.147Z,990.68
2019-05-09T00:16:29.512Z,990.70
2019-05-09T00:17:04.902Z,990.65
2019-05-09T00:17:40.124Z,990.68
2019-05-09T00:18:15.414Z,990.70
2019-05-09T00:18:50.930Z,990.68
2019-05-09T00:19:26.417Z,990.71
2019-05-09T00:20:03.516Z,990.73
2019-05-09T00:20:37.338Z,990.72
2019-05-09T00:21:13.457Z,990.72
2019-05-09T00:21:48.153Z,990.71
2019-05-09T00:22:24.010Z,990.76
2019-05-09T00:22:58.867Z,990.75
2019-05-09T00:23:34.075Z,990.78
2019-05-09T00:24:09.472Z,990.74
2019-05-09T00:24:44.892Z,990.73
2019-05-09T00:25:21.014Z,990.78
2019-05-09T00:25:55.457Z,990.76
2019-05-09T00:26:30.748Z,990.76
2019-05-09T00:27:05.972Z,990.77
2019-05-09T00:27:43.431Z,990.75
2019-05-09T00:28:16.664Z,990.73
2019-05-09T00:28:53.350Z,990.76
2019-05-09T00:29:27.362Z,990.75
2019-05-09T00:30:03.842Z,990.69
2019-05-09T00:30:38.103Z,990.76
2019-05-09T00:31:13.689Z,990.77
2019-05-09T00:31:48.802Z,990.76
2019-05-09T00:32:24.007Z,990.77
2019-05-09T00:32:59.131Z,990.78
2019-05-09T00:33:34.680Z,990.79
2019-05-09T00:34:09.886Z,990.79
2019-05-09T00:34:45.065Z,990.78
2019-05-09T00:35:23.221Z,990.78
2019-05-09T00:35:55.915Z,990.83
2019-05-09T00:36:33.349Z,990.75
2019-05-09T00:37:06.728Z,990.76
2019-05-09T00:37:43.181Z,990.75
2019-05-09T00:38:17.324Z,990.75
2019-05-09T00:38:53.672Z,990.75
2019-05-09T00:39:28.347Z,990.74
2019-05-09T00:40:04.013Z,990.78
2019-05-09T00:40:51.627Z,990.69
2019-05-09T00:41:14.151Z,990.75
2019-05-09T00:41:49.392Z,990.76
2019-05-09T00:42:24.697Z,990.71
2019-05-09T00:43:00.488Z,990.72
2019-05-09T00:43:35.602Z,990.81
2019-05-09T00:44:10.994Z,990.76
2019-05-09T00:44:46.344Z,990.75
2019-05-09T00:45:23.777Z,990.77
2019-05-09T00:45:56.880Z,990.77
2019-05-09T00:46:33.951Z,990.78
2019-05-09T00:47:07.593Z,990.77
2019-05-09T00:47:43.376Z,990.81
2019-05-09T00:48:18.093Z,990.77
2019-05-09T00:48:53.681Z,990.78
2019-05-09T00:49:28.908Z,990.76
2019-05-09T00:50:05.186Z,990.80
2019-05-09T00:50:39.953Z,990.80
2019-05-09T00:51:15.669Z,990.77
2019-05-09T00:51:51.387Z,990.79
2019-05-09T00:52:26.774Z,990.79
2019-05-09T00:53:03.108Z,990.81
2019-05-09T00:53:37.687Z,990.75
2019-05-09T00:54:13.512Z,990.76
2019-05-09T00:54:48.105Z,990.77
2019-05-09T00:55:23.922Z,990.76
2019-05-09T00:55:58.719Z,990.76
2019-05-09T00:56:33.864Z,990.80
2019-05-09T00:57:09.050Z,990.78
2019-05-09T00:57:44.386Z,990.85
2019-05-09T00:58:19.669Z,990.84
2019-05-09T00:58:55.006Z,990.78
2019-05-09T00:59:30.106Z,990.79
2019-05-09T01:00:05.627Z,990.79
2019-05-09T01:00:40.910Z,990.80
2019-05-09T01:01:16.256Z,990.80
2019-05-09T01:01:51.471Z,990.82
2019-05-09T01:02:26.599Z,990.82
2019-05-09T01:03:03.425Z,990.81
2019-05-09T01:03:37.321Z,990.82
2019-05-09T01:04:13.591Z,990.82
2019-05-09T01:04:47.950Z,990.84
2019-05-09T01:05:23.927Z,990.82
2019-05-09T01:05:58.881Z,990.82
2019-05-09T01:06:34.229Z,990.82
2019-05-09T01:07:09.317Z,990.85
2019-05-09T01:07:44.609Z,990.82
2019-05-09T01:08:19.932Z,990.78
2019-05-09T01:08:55.316Z,990.81
2019-05-09T01:09:30.742Z,990.82
2019-05-09T01:10:06.345Z,990.82
2019-05-09T01:10:43.500Z,990.81
2019-05-09T01:11:17.081Z,990.81
2019-05-09T01:11:53.360Z,990.81
2019-05-09T01:12:27.516Z,990.80
2019-05-09T01:13:03.641Z,990.80
2019-05-09T01:13:38.052Z,990.82
2019-05-09T01:14:14.239Z,990.79
2019-05-09T01:15:08.667Z,990.84
2019-05-09T01:15:44.286Z,990.82
2019-05-09T01:16:19.781Z,990.79
2019-05-09T01:16:55.737Z,990.81
2019-05-09T01:17:33.346Z,990.82
2019-05-09T01:18:06.671Z,990.83
2019-05-09T01:18:43.591Z,990.81
2019-05-09T01:19:17.294Z,990.80
2019-05-09T01:19:53.875Z,990.82
2019-05-09T01:20:28.212Z,990.79
2019-05-09T01:21:04.012Z,990.80
2019-05-09T01:21:38.921Z,990.84
2019-05-09T01:22:14.538Z,990.80
2019-05-09T01:22:49.983Z,990.80
2019-05-09T01:23:25.287Z,990.77
2019-05-09T01:24:00.596Z,990.79
2019-05-09T01:24:35.986Z,990.79
2019-05-09T01:25:13.303Z,990.78
2019-05-09T01:25:46.704Z,990.76
2019-05-09T01:26:23.625Z,990.79
2019-05-09T01:26:57.544Z,990.78
2019-05-09T01:27:33.928Z,990.79
2019-05-09T01:28:07.957Z,990.80
2019-05-09T01:28:44.252Z,990.77
2019-05-09T01:29:18.588Z,990.83
2019-05-09T01:29:53.909Z,990.79
2019-05-09T01:30:29.804Z,990.80
2019-05-09T01:31:05.331Z,990.83
2019-05-09T01:31:40.636Z,990.80
2019-05-09T01:32:16.189Z,990.81
2019-05-09T01:32:53.813Z,990.84
2019-05-09T01:33:26.813Z,990.82
2019-05-09T01:34:03.980Z,990.80
2019-05-09T01:34:37.120Z,990.84
2019-05-09T01:35:13.170Z,990.83
2019-05-09T01:35:47.634Z,990.86
2019-05-09T01:36:23.470Z,990.86
2019-05-09T01:36:58.155Z,990.88
2019-05-09T01:37:34.228Z,990.87
2019-05-09T01:38:09.099Z,990.88
2019-05-09T01:38:44.182Z,990.89
2019-05-09T01:39:19.697Z,990.87
2019-05-09T01:39:55.097Z,990.86
2019-05-09T01:40:30.510Z,990.86
2019-05-09T01:41:05.896Z,990.88
2019-05-09T01:41:43.204Z,990.87
2019-05-09T01:42:17.030Z,990.87
2019-05-09T01:42:53.801Z,990.85
2019-05-09T01:43:27.973Z,990.87
2019-05-09T01:44:04.124Z,990.90
2019-05-09T01:44:38.887Z,990.89
2019-05-09T01:45:14.263Z,990.92
2019-05-09T01:45:49.715Z,990.90
2019-05-09T01:46:25.156Z,990.92
2019-05-09T01:47:00.264Z,990.87
2019-05-09T01:47:35.393Z,990.90
2019-05-09T01:48:10.732Z,990.92
2019-05-09T01:48:45.859Z,990.91
2019-05-09T01:49:23.105Z,990.94
2019-05-09T01:49:56.462Z,990.87
2019-05-09T01:50:33.906Z,990.95
2019-05-09T01:51:06.885Z,990.93
2019-05-09T01:51:44.341Z,990.95
2019-05-09T01:52:17.908Z,990.93
2019-05-09T01:52:53.360Z,990.98
2019-05-09T01:53:28.556Z,990.96
2019-05-09T01:54:04.041Z,990.95
2019-05-09T01:54:39.265Z,990.99
2019-05-09T01:55:14.663Z,990.97
2019-05-09T01:55:50.008Z,990.97
2019-05-09T01:56:25.598Z,990.95
2019-05-09T01:57:02.754Z,990.97
2019-05-09T01:57:36.415Z,990.94
2019-05-09T01:58:13.766Z,991.00
2019-05-09T01:58:46.962Z,990.94
2019-05-09T01:59:24.096Z,990.98
2019-05-09T01:59:57.454Z,990.96
2019-05-09T02:00:33.177Z,990.95
2019-05-09T02:01:07.968Z,990.97
2019-05-09T02:01:43.523Z,990.97
2019-05-09T02:02:18.581Z,990.96
2019-05-09T02:02:54.396Z,990.93
2019-05-09T02:03:29.886Z,990.90
2019-05-09T02:04:05.623Z,990.93
2019-05-09T02:04:41.132Z,990.92
2019-05-09T02:05:16.460Z,990.95
2019-05-09T02:05:53.142Z,990.94
2019-05-09T02:06:27.085Z,990.91
2019-05-09T02:07:04.085Z,990.91
2019-05-09T02:07:37.699Z,990.92
2019-05-09T02:08:14.246Z,990.95
2019-05-09T02:08:48.308Z,990.91
2019-05-09T02:09:23.685Z,990.94
2019-05-09T02:09:59.045Z,990.93
2019-05-09T02:10:34.684Z,990.92
2019-05-09T02:11:09.955Z,990.94
2019-05-09T02:11:45.610Z,990.91
2019-05-09T02:12:20.255Z,990.90
2019-05-09T02:12:55.654Z,990.91
2019-05-09T02:13:30.877Z,990.91
2019-05-09T02:14:05.979Z,990.92
2019-05-09T02:14:43.536Z,990.88
2019-05-09T02:15:16.832Z,990.91
2019-05-09T02:15:53.707Z,990.90
2019-05-09T02:16:27.831Z,990.92
2019-05-09T02:17:03.384Z,990.89
2019-05-09T02:17:38.640Z,990.90
2019-05-09T02:18:13.859Z,990.90
2019-05-09T02:18:49.055Z,990.89
2019-05-09T02:19:24.177Z,990.92
2019-05-09T02:19:59.413Z,990.89
2019-05-09T02:20:34.934Z,990.88
2019-05-09T02:21:12.362Z,990.85
2019-05-09T02:21:45.882Z,990.84
2019-05-09T02:22:23.107Z,990.85
2019-05-09T02:22:56.783Z,990.90
2019-05-09T02:23:33.894Z,990.87
2019-05-09T02:24:07.793Z,990.86
2019-05-09T02:24:44.059Z,990.88
2019-05-09T02:25:18.424Z,990.86
2019-05-09T02:25:53.822Z,990.87
2019-05-09T02:26:29.220Z,990.88
2019-05-09T02:27:04.606Z,990.85
2019-05-09T02:27:40.017Z,990.85
2019-05-09T02:28:15.421Z,990.91
2019-05-09T02:28:51.141Z,990.91
2019-05-09T02:29:26.436Z,990.86
2019-05-09T02:30:05.410Z,990.91
2019-05-09T02:30:37.194Z,990.88
2019-05-09T02:31:15.739Z,990.91
2019-05-09T02:31:47.712Z,990.92
2019-05-09T02:32:24.021Z,990.92
2019-05-09T02:32:58.492Z,990.88
2019-05-09T02:33:34.666Z,990.89
2019-05-09T02:34:09.143Z,990.91
2019-05-09T02:34:44.395Z,990.88
2019-05-09T02:35:19.551Z,990.86
2019-05-09T02:36:00.801Z,990.85
2019-05-09T02:36:30.485Z,990.85
2019-05-09T02:37:05.583Z,990.86
2019-05-09T02:37:41.076Z,990.83
2019-05-09T02:38:19.213Z,990.84
2019-05-09T02:38:51.987Z,990.84
2019-05-09T02:39:29.389Z,990.84
2019-05-09T02:40:22.665Z,990.82
2019-05-09T02:40:59.458Z,990.82
2019-05-09T02:41:33.315Z,990.79
2019-05-09T02:42:13.377Z,990.79
2019-05-09T02:42:44.061Z,990.75
2019-05-09T02:43:19.710Z,990.83
2019-05-09T02:43:58.371Z,990.82
2019-05-09T02:44:30.626Z,990.83
2019-05-09T02:45:08.158Z,990.80
2019-05-09T02:45:40.926Z,990.80
2019-05-09T02:46:18.874Z,990.79
2019-05-09T02:46:51.758Z,990.79
2019-05-09T02:47:29.011Z,990.77
2019-05-09T02:48:02.871Z,990.82
2019-05-09T02:48:38.633Z,990.78
2019-05-09T02:49:13.575Z,990.78
2019-05-09T02:49:49.063Z,990.77
2019-05-09T02:50:24.480Z,990.82
2019-05-09T02:51:00.497Z,990.79
2019-05-09T02:51:34.922Z,990.82
2019-05-09T02:52:10.215Z,990.82
2019-05-09T02:52:48.328Z,990.80
2019-05-09T02:53:20.727Z,990.80
2019-05-09T02:53:58.326Z,990.82
2019-05-09T02:54:31.244Z,990.78
2019-05-09T02:55:09.381Z,990.79
2019-05-09T02:55:41.366Z,990.78
2019-05-09T02:56:18.735Z,990.75
2019-05-09T02:56:52.093Z,990.76
2019-05-09T02:57:29.311Z,990.76
2019-05-09T02:58:03.025Z,990.74
2019-05-09T02:58:38.811Z,990.77
2019-05-09T02:59:13.538Z,990.77
2019-05-09T02:59:49.248Z,990.76
2019-05-09T03:00:24.061Z,990.73
2019-05-09T03:00:59.823Z,990.76
2019-05-09T03:01:34.785Z,990.79
2019-05-09T03:02:10.374Z,990.76
2019-05-09T03:02:48.486Z,990.76
2019-05-09T03:03:20.876Z,990.76
2019-05-09T03:03:58.662Z,990.77
2019-05-09T03:04:31.488Z,990.76
2019-05-09T03:05:08.776Z,990.76
2019-05-09T03:05:42.495Z,990.76
2019-05-09T03:06:19.687Z,990.76
2019-05-09T03:06:53.411Z,990.78
2019-05-09T03:07:28.962Z,990.77
2019-05-09T03:08:04.148Z,990.79
2019-05-09T03:08:39.727Z,990.76
2019-05-09T03:09:15.239Z,990.79
2019-05-09T03:09:50.623Z,990.81
2019-05-09T03:10:28.987Z,990.77
2019-05-09T03:11:01.540Z,990.79
2019-05-09T03:11:38.747Z,990.77
2019-05-09T03:12:26.617Z,990.79
2019-05-09T03:12:50.188Z,990.81
2019-05-09T03:13:23.195Z,990.80
2019-05-09T03:13:58.856Z,990.73
2019-05-09T03:14:34.007Z,990.79
2019-05-09T03:15:10.132Z,990.77
2019-05-09T03:15:45.417Z,990.77
2019-05-09T03:16:20.757Z,990.80
2019-05-09T03:16:58.350Z,990.78
2019-05-09T03:17:31.078Z,990.76
2019-05-09T03:18:08.956Z,990.78
2019-05-09T03:18:41.669Z,990.77
2019-05-09T03:19:19.474Z,990.78
2019-05-09T03:19:52.370Z,990.76
2019-05-09T03:20:28.886Z,990.76
2019-05-09T03:21:03.187Z,990.78
2019-05-09T03:21:39.044Z,990.82
2019-05-09T03:22:13.909Z,990.81
2019-05-09T03:22:49.381Z,990.80
2019-05-09T03:23:24.640Z,990.77
2019-05-09T03:23:59.856Z,990.79
2019-05-09T03:24:35.074Z,990.80
2019-05-09T03:25:10.669Z,990.79
2019-05-09T03:25:48.447Z,990.80
2019-05-09T03:26:21.978Z,990.80
2019-05-09T03:26:59.564Z,990.84
2019-05-09T03:27:32.884Z,990.83
2019-05-09T03:28:09.607Z,990.84
2019-05-09T03:28:43.829Z,990.83
2019-05-09T03:29:19.239Z,990.85
2019-05-09T03:29:54.335Z,990.82
2019-05-09T03:30:29.773Z,990.80
2019-05-09T03:31:09.105Z,990.81
2019-05-09T03:31:40.787Z,990.82
2019-05-09T03:32:19.079Z,990.79
2019-05-09T03:32:51.397Z,990.85
2019-05-09T03:33:29.597Z,990.80
2019-05-09T03:34:02.066Z,990.82
2019-05-09T03:34:37.358Z,990.81
2019-05-09T03:35:12.670Z,990.81
2019-05-09T03:35:48.163Z,990.83
2019-05-09T03:36:23.056Z,990.84
2019-05-09T03:36:58.241Z,990.83
2019-05-09T03:37:33.459Z,990.86
2019-05-09T03:38:08.748Z,990.83
2019-05-09T03:38:44.199Z,990.84
2019-05-09T03:39:19.622Z,990.81
2019-05-09T03:39:54.941Z,990.82
2019-05-09T03:40:30.429Z,990.82
2019-05-09T03:41:08.322Z,990.83
2019-05-09T03:41:41.239Z,990.81
2019-05-09T03:42:18.932Z,990.80
2019-05-09T03:42:52.128Z,990.81
2019-05-09T03:43:27.501Z,990.80
2019-05-09T03:44:02.841Z,990.83
2019-05-09T03:44:38.556Z,990.82
2019-05-09T03:45:13.674Z,990.82
2019-05-09T03:45:49.009Z,990.82
2019-05-09T03:46:24.412Z,990.80
2019-05-09T03:46:59.946Z,990.79
2019-05-09T03:47:37.546Z,990.81
2019-05-09T03:48:10.974Z,990.80
2019-05-09T03:48:47.771Z,990.80
2019-05-09T03:49:21.574Z,990.76
2019-05-09T03:49:58.633Z,990.82
2019-05-09T03:50:32.304Z,990.79
2019-05-09T03:51:08.152Z,990.82
2019-05-09T03:51:43.219Z,990.85
2019-05-09T03:52:18.715Z,990.77
2019-05-09T03:52:54.034Z,990.77
2019-05-09T03:53:29.615Z,990.81
2019-05-09T03:54:05.130Z,990.83
2019-05-09T03:54:40.615Z,990.79
2019-05-09T03:55:17.713Z,990.84
2019-05-09T03:55:51.449Z,990.82
2019-05-09T03:56:27.355Z,990.82
2019-05-09T03:57:02.147Z,990.83
2019-05-09T03:57:37.458Z,990.80
2019-05-09T03:58:12.555Z,990.81
2019-05-09T03:58:47.994Z,990.80
2019-05-09T03:59:23.305Z,990.78
2019-05-09T03:59:58.619Z,990.80
2019-05-09T04:00:34.040Z,990.82
2019-05-09T04:01:10.795Z,990.79
2019-05-09T04:01:46.893Z,990.80
2019-05-09T04:02:19.954Z,990.76
2019-05-09T04:02:55.452Z,990.77
2019-05-09T04:03:30.767Z,990.78
2019-05-09T04:04:06.144Z,990.81
2019-05-09T04:04:41.468Z,990.76
2019-05-09T04:05:18.114Z,990.78
2019-05-09T04:05:58.646Z,990.77
2019-05-09T04:06:28.186Z,990.77
2019-05-09T04:07:02.744Z,990.76
2019-05-09T04:07:38.418Z,990.78
2019-05-09T04:08:13.242Z,990.80
2019-05-09T04:08:48.836Z,990.84
2019-05-09T04:09:24.127Z,990.80
2019-05-09T04:09:59.638Z,990.82
2019-05-09T04:10:34.862Z,990.78
2019-05-09T04:11:10.422Z,990.84
2019-05-09T04:11:45.708Z,990.86
2019-05-09T04:12:21.143Z,990.86
2019-05-09T04:12:59.302Z,990.88
2019-05-09T04:13:31.742Z,990.87
2019-05-09T04:14:08.296Z,990.86
2019-05-09T04:14:42.761Z,990.82
2019-05-09T04:15:19.158Z,990.80
2019-05-09T04:15:53.273Z,990.85
2019-05-09T04:16:28.699Z,990.84
2019-05-09T04:17:04.006Z,990.82
2019-05-09T04:17:39.094Z,990.85
2019-05-09T04:18:14.612Z,990.82
2019-05-09T04:18:49.724Z,990.82
2019-05-09T04:19:25.011Z,990.78
2019-05-09T04:20:00.334Z,990.83
2019-05-09T04:20:37.614Z,990.82
2019-05-09T04:21:11.148Z,990.86
2019-05-09T04:21:48.261Z,990.82
2019-05-09T04:22:21.496Z,990.82
2019-05-09T04:22:59.317Z,990.86
2019-05-09T04:23:32.089Z,990.84
2019-05-09T04:24:08.484Z,990.82
2019-05-09T04:24:42.890Z,990.83
2019-05-09T04:25:18.220Z,990.83
2019-05-09T04:25:53.423Z,990.83
2019-05-09T04:26:28.833Z,990.83
2019-05-09T04:27:04.059Z,990.87
2019-05-09T04:27:39.462Z,990.85
2019-05-09T04:28:14.654Z,990.88
2019-05-09T04:28:49.972Z,990.86
2019-05-09T04:29:25.715Z,990.85
2019-05-09T04:30:01.009Z,990.89
2019-05-09T04:30:37.340Z,990.89
2019-05-09T04:31:12.013Z,990.91
2019-05-09T04:31:48.364Z,990.89
2019-05-09T04:32:22.667Z,990.94
2019-05-09T04:32:58.172Z,990.96
2019-05-09T04:33:33.170Z,990.95
2019-05-09T04:34:09.859Z,990.93
2019-05-09T04:34:43.936Z,990.95
2019-05-09T04:35:19.209Z,990.94
2019-05-09T04:35:54.623Z,990.95
2019-05-09T04:36:29.736Z,990.94
2019-05-09T04:37:05.302Z,990.99
2019-05-09T04:37:40.673Z,990.95
2019-05-09T04:38:17.762Z,990.96
2019-05-09T04:38:51.176Z,990.97
2019-05-09T04:39:28.336Z,990.99
2019-05-09T04:40:03.315Z,990.98
2019-05-09T04:40:44.575Z,990.97
2019-05-09T04:41:16.359Z,990.98
2019-05-09T04:41:48.670Z,990.93
2019-05-09T04:42:23.108Z,990.94
2019-05-09T04:43:10.804Z,990.96
2019-05-09T04:43:36.758Z,990.96
2019-05-09T04:44:16.420Z,990.95
2019-05-09T04:44:48.980Z,990.95
2019-05-09T04:45:19.908Z,990.95
2019-05-09T04:45:55.207Z,990.97
2019-05-09T04:46:30.425Z,990.94
2019-05-09T04:47:05.826Z,990.96
2019-05-09T04:47:43.455Z,990.98
2019-05-09T04:48:20.310Z,991.00
2019-05-09T04:48:54.056Z,991.00
2019-05-09T04:49:29.692Z,990.96
2019-05-09T04:50:02.470Z,991.00
2019-05-09T04:50:38.032Z,991.03
2019-05-09T04:51:13.390Z,990.99
2019-05-09T04:51:48.504Z,991.04
2019-05-09T04:52:23.993Z,991.04
2019-05-09T04:52:59.301Z,991.01
2019-05-09T04:53:34.518Z,991.07
2019-05-09T04:54:09.925Z,991.05
2019-05-09T04:54:44.915Z,991.11
2019-05-09T04:55:20.132Z,991.07
2019-05-09T04:55:55.432Z,991.08
2019-05-09T04:56:30.657Z,991.07
2019-05-09T04:57:07.803Z,991.08
2019-05-09T04:57:41.175Z,991.08
2019-05-09T04:58:19.115Z,991.05
2019-05-09T04:58:51.923Z,991.11
2019-05-09T04:59:28.322Z,991.07
2019-05-09T05:00:02.637Z,991.11
2019-05-09T05:00:37.863Z,991.13
2019-05-09T05:01:13.262Z,991.11
2019-05-09T05:01:48.588Z,991.09
2019-05-09T05:02:24.206Z,991.12
2019-05-09T05:02:59.698Z,991.11
2019-05-09T05:03:35.006Z,991.12
2019-05-09T05:04:10.244Z,991.12
2019-05-09T05:04:47.699Z,991.14
2019-05-09T05:05:20.766Z,991.13
2019-05-09T05:05:58.187Z,991.17
2019-05-09T05:06:31.629Z,991.18
2019-05-09T05:07:07.642Z,991.13
2019-05-09T05:07:42.339Z,991.21
2019-05-09T05:08:18.173Z,991.19
2019-05-09T05:08:52.851Z,991.24
2019-05-09T05:09:28.194Z,991.17
2019-05-09T05:10:03.750Z,991.21
2019-05-09T05:10:38.746Z,991.23
2019-05-09T05:11:13.984Z,991.21
2019-05-09T05:11:49.566Z,991.18
2019-05-09T05:12:24.796Z,991.18
2019-05-09T05:13:00.129Z,991.23
2019-05-09T05:13:38.039Z,991.26
2019-05-09T05:14:10.735Z,991.23
2019-05-09T05:14:47.598Z,991.22
2019-05-09T05:15:21.680Z,991.23
2019-05-09T05:15:57.808Z,991.24
2019-05-09T05:16:32.196Z,991.24
2019-05-09T05:17:10.866Z,991.24
2019-05-09T05:17:42.900Z,991.31
2019-05-09T05:18:20.257Z,991.32
2019-05-09T05:18:53.706Z,991.31
2019-05-09T05:19:31.414Z,991.26
2019-05-09T05:20:04.669Z,991.27
2019-05-09T05:20:40.188Z,991.31
2019-05-09T05:21:15.377Z,991.31
2019-05-09T05:21:50.911Z,991.30
2019-05-09T05:22:28.196Z,991.31
2019-05-09T05:23:01.767Z,991.30
2019-05-09T05:23:38.064Z,991.30
2019-05-09T05:24:12.699Z,991.32
2019-05-09T05:24:48.745Z,991.27
2019-05-09T05:25:23.341Z,991.30
2019-05-09T05:25:58.854Z,991.25
2019-05-09T05:26:34.246Z,991.29
2019-05-09T05:27:09.590Z,991.30
2019-05-09T05:27:46.954Z,991.25
2019-05-09T05:28:20.115Z,991.27
2019-05-09T05:28:55.432Z,991.23
2019-05-09T05:29:30.820Z,991.21
2019-05-09T05:30:07.533Z,991.28
2019-05-09T05:30:41.279Z,991.22
2019-05-09T05:31:17.903Z,991.20
2019-05-09T05:31:51.486Z,991.24
2019-05-09T05:32:28.190Z,991.26
2019-05-09T05:33:02.337Z,991.20
2019-05-09T05:33:38.276Z,991.23
2019-05-09T05:34:13.186Z,991.22
2019-05-09T05:34:48.369Z,991.19
2019-05-09T05:35:23.600Z,991.20
2019-05-09T05:35:58.806Z,991.18
2019-05-09T05:36:34.439Z,991.19
2019-05-09T05:37:09.521Z,991.23
2019-05-09T05:37:44.837Z,991.23
2019-05-09T05:38:20.333Z,991.22
2019-05-09T05:38:55.647Z,991.21
2019-05-09T05:39:30.969Z,991.22
2019-05-09T05:40:07.782Z,991.20
2019-05-09T05:40:44.736Z,991.24
2019-05-09T05:41:18.302Z,991.23
2019-05-09T05:41:52.713Z,991.25
2019-05-09T05:42:28.237Z,991.24
2019-05-09T05:43:03.441Z,991.23
2019-05-09T05:43:43.983Z,991.26
2019-05-09T05:44:13.649Z,991.27
2019-05-09T05:44:49.271Z,991.27
2019-05-09T05:45:24.463Z,991.27
2019-05-09T05:45:59.589Z,991.27
2019-05-09T05:46:34.929Z,991.28
2019-05-09T05:47:10.042Z,991.28
2019-05-09T05:47:45.525Z,991.27
2019-05-09T05:48:21.139Z,991.28
2019-05-09T05:48:57.768Z,991.27
2019-05-09T05:49:31.785Z,991.31
2019-05-09T05:50:08.398Z,991.28
2019-05-09T05:50:42.515Z,991.29
2019-05-09T05:51:18.421Z,991.33
2019-05-09T05:51:53.894Z,991.30
2019-05-09T05:52:29.317Z,991.32
2019-05-09T05:53:04.903Z,991.34
2019-05-09T05:53:40.527Z,991.34
2019-05-09T05:54:18.013Z,991.33
2019-05-09T05:54:51.348Z,991.35
2019-05-09T05:55:27.441Z,991.34
2019-05-09T05:56:01.866Z,991.30
2019-05-09T05:56:38.233Z,991.34
2019-05-09T05:57:12.501Z,991.38
2019-05-09T05:57:47.913Z,991.45
2019-05-09T05:58:23.247Z,991.39
2019-05-09T05:58:58.852Z,991.40
2019-05-09T05:59:37.281Z,991.49
2019-05-09T06:00:09.487Z,991.51
2019-05-09T06:00:44.798Z,991.49
2019-05-09T06:01:20.337Z,991.49
2019-05-09T06:01:58.059Z,991.49
2019-05-09T06:02:31.407Z,991.53
2019-05-09T06:03:08.780Z,991.52
2019-05-09T06:03:42.425Z,991.51
2019-05-09T06:04:18.521Z,991.51
2019-05-09T06:04:53.228Z,991.56
2019-05-09T06:05:28.491Z,991.52
2019-05-09T06:06:03.892Z,991.54
2019-05-09T06:06:39.178Z,991.59
2019-05-09T06:07:14.697Z,991.55
2019-05-09T06:07:50.037Z,991.48
2019-05-09T06:08:27.437Z,991.56
2019-05-09T06:09:00.685Z,991.50
2019-05-09T06:09:37.918Z,991.50
2019-05-09T06:10:11.726Z,991.48
2019-05-09T06:10:48.334Z,991.54
2019-05-09T06:11:22.216Z,991.51
2019-05-09T06:11:57.899Z,991.46
2019-05-09T06:12:32.661Z,991.46
2019-05-09T06:13:08.051Z,991.49
2019-05-09T06:13:54.478Z,991.54
2019-05-09T06:14:18.871Z,991.51
2019-05-09T06:14:54.117Z,991.51
2019-05-09T06:15:29.608Z,991.51
2019-05-09T06:16:04.935Z,991.53
2019-05-09T06:16:40.224Z,991.51
2019-05-09T06:17:17.935Z,991.52
2019-05-09T06:17:51.097Z,991.49
2019-05-09T06:18:27.571Z,991.59
2019-05-09T06:19:02.048Z,991.53
2019-05-09T06:19:37.954Z,991.53
2019-05-09T06:20:12.223Z,991.51
2019-05-09T06:20:48.575Z,991.48
2019-05-09T06:21:23.208Z,991.56
2019-05-09T06:21:58.506Z,991.54
2019-05-09T06:22:33.740Z,991.53
2019-05-09T06:23:08.969Z,991.54
2019-05-09T06:23:44.485Z,991.52
2019-05-09T06:24:20.003Z,991.54
2019-05-09T06:24:55.557Z,991.63
2019-05-09T06:25:30.984Z,991.53
2019-05-09T06:26:09.372Z,991.50
2019-05-09T06:26:41.209Z,991.54
2019-05-09T06:27:18.105Z,991.51
2019-05-09T06:27:52.223Z,991.53
2019-05-09T06:28:27.549Z,991.54
2019-05-09T06:29:02.801Z,991.54
2019-05-09T06:29:38.664Z,991.55
2019-05-09T06:30:13.466Z,991.63
2019-05-09T06:30:48.996Z,991.61
2019-05-09T06:31:24.379Z,991.64
2019-05-09T06:31:59.707Z,991.72
2019-05-09T06:32:34.920Z,991.64
2019-05-09T06:33:10.140Z,991.59
2019-05-09T06:33:47.567Z,991.59
2019-05-09T06:34:20.523Z,991.60
2019-05-09T06:34:57.660Z,991.63
2019-05-09T06:35:31.258Z,991.59
2019-05-09T06:36:08.019Z,991.58
2019-05-09T06:36:42.099Z,991.55
2019-05-09T06:37:18.380Z,991.62
2019-05-09T06:37:52.803Z,991.65
2019-05-09T06:38:28.435Z,991.68
2019-05-09T06:39:03.612Z,991.66
2019-05-09T06:39:39.034Z,991.63
2019-05-09T06:40:14.468Z,991.73
2019-05-09T06:40:49.946Z,991.64
2019-05-09T06:41:25.263Z,991.64
2019-05-09T06:42:00.654Z,991.60
2019-05-09T06:42:38.109Z,991.61
2019-05-09T06:43:11.382Z,991.59
2019-05-09T06:43:49.511Z,991.65
2019-05-09T06:44:22.034Z,991.57
2019-05-09T06:44:58.449Z,991.54
2019-05-09T06:45:32.904Z,991.57
2019-05-09T06:46:08.330Z,991.60
2019-05-09T06:46:43.707Z,991.58
2019-05-09T06:47:19.029Z,991.58
2019-05-09T06:47:54.677Z,991.63
2019-05-09T06:48:29.844Z,991.63
2019-05-09T06:49:23.221Z,991.67
2019-05-09T06:49:40.784Z,991.62
2019-05-09T06:50:18.272Z,991.60
2019-05-09T06:50:51.742Z,991.62
2019-05-09T06:51:27.679Z,991.68
2019-05-09T06:52:02.615Z,991.63
2019-05-09T06:52:37.930Z,991.61
2019-05-09T06:53:13.357Z,991.63
2019-05-09T06:53:48.961Z,991.63
2019-05-09T06:54:24.565Z,991.65
2019-05-09T06:55:00.071Z,991.61
2019-05-09T06:55:35.343Z,991.63
2019-05-09T06:56:10.446Z,991.59
2019-05-09T06:56:47.448Z,991.60
2019-05-09T06:57:21.612Z,991.61
2019-05-09T06:57:58.376Z,991.63
2019-05-09T06:58:32.132Z,991.61
2019-05-09T06:59:07.775Z,991.57
2019-05-09T06:59:42.845Z,991.57
2019-05-09T07:00:18.340Z,991.62
2019-05-09T07:00:53.604Z,991.53
2019-05-09T07:01:29.019Z,991.53
2019-05-09T07:02:04.333Z,991.55
2019-05-09T07:02:39.958Z,991.59
2019-05-09T07:03:15.387Z,991.58
2019-05-09T07:03:51.012Z,991.57
2019-05-09T07:04:27.664Z,991.58
2019-05-09T07:05:01.561Z,991.58
2019-05-09T07:05:38.693Z,991.56
2019-05-09T07:06:12.423Z,991.57
2019-05-09T07:06:48.318Z,991.55
2019-05-09T07:07:23.149Z,991.59
2019-05-09T07:07:58.317Z,991.65
2019-05-09T07:08:33.514Z,991.65
2019-05-09T07:09:08.956Z,991.62
2019-05-09T07:09:44.291Z,991.62
2019-05-09T07:10:19.698Z,991.61
2019-05-09T07:10:55.111Z,991.63
2019-05-09T07:11:30.775Z,991.61
2019-05-09T07:12:07.965Z,991.64
2019-05-09T07:12:41.690Z,991.66
2019-05-09T07:13:18.266Z,991.63
2019-05-09T07:13:52.243Z,991.67
2019-05-09T07:14:32.318Z,991.65
2019-05-09T07:15:03.066Z,991.65
2019-05-09T07:15:38.514Z,991.65
2019-05-09T07:16:13.823Z,991.70
2019-05-09T07:16:48.959Z,991.64
2019-05-09T07:17:24.382Z,991.63
2019-05-09T07:17:59.804Z,991.65
2019-05-09T07:18:35.128Z,991.65
2019-05-09T07:19:10.952Z,991.63
2019-05-09T07:19:48.538Z,991.66
2019-05-09T07:20:21.670Z,991.70
2019-05-09T07:20:57.670Z,991.61
2019-05-09T07:21:32.829Z,991.64
2019-05-09T07:22:09.132Z,991.65